Go Pro

GE Vernova (GEV) Institutional Ownership

GE Vernova logo
$943.00 +21.06 (+2.28%)
As of 03:22 PM Eastern

Institutional Ownership Changes (13F Filings) for GE Vernova (NYSE:GEV)

Number of
Institutional Buyers
(last 12 months)
2228
Total
Institutional Inflows
(last 12 months)
$647.95B
Number of
Institutional Sellers
(last 12 months)
1128
Total
Institutional Outflows
(last 12 months)
$14.77B
Get GEV Insider Trade Alerts

Want to know when executives and insiders are buying or selling GE Vernova stock? Sign up for InsiderTrades.com's daily newsletter to get the latest insider transactions delivered to your inbox daily.

SMS is currently available in Australia, Belgium, Canada, France, Germany, Ireland, Italy, New Zealand, the Netherlands, Singapore, South Africa, Spain, Switzerland, the United Kingdom, and the United States. By entering your phone number and clicking the sign-up button, you agree to receive periodic text messages from MarketBeat at the phone number you submitted, including texts that may be sent using an automatic telephone dialing system. Message and data rates may apply. Message frequency will vary. Messages will consist of stock alerts, news stories, and partner advertisements/offers. Consent is not a condition of the purchase of any goods or services. Text HELP for help/customer support. Unsubscribe at any time by replying "STOP" to any text message that you receive from MarketBeat or by visiting our mailing preferences page. Read our full terms of service and privacy policy.
Skip Chart & View Institutional Buying and Selling Data

GEV Institutional Buying and Selling by Quarter

GE Vernova Major Shareholders & Ownership History

Reporting DateMajor Shareholder NameShares HeldMarket Value% of PortfolioQuarterly Change in SharesOwnership in CompanyDetails
9/2/2026Kinetic Wealth Investment Advisors LLC427$502K0.2%N/A0.000%
9/2/2026Range Advisory LLC748$879K0.1%+25.5%0.000%
9/1/2026 Parrish Capital LLC1,593$1.87M1.5%-17.8%0.001%
8/28/2026 Cornerstone Financial Management LLC60$70K0.1%+36.4%0.000%
8/27/2026 Corient Private Wealth LP61,393$72.13M0.1%-13.2%0.023%
8/27/2026 Formuepleje A S1,685$1.98M0.2%N/A0.001%
8/27/2026 Tucker Asset Management LLC481$565K0.1%N/A0.000%
8/26/2026 HORAN Wealth LLC2,818$3.31M0.4%+16.4%0.001%
8/26/2026 Amundi1,505,800$1.77B0.4%-16.6%0.565%
8/26/2026 HighTower Advisors LLC168,874$198.40M0.2%-4.5%0.063%
Your $29.97 book is free today (Ad)

Why Some Traders Skip Stocks Entirely You don't need a big account to trade options. In fact, options can give you up to 12 times the leverage of stocks — with a fraction of the capital tied up. This free guide lays it all out in plain English — from A to Z, with step-by-step examples you can follow in your own account.tc pixel

Normally $29.97. Today it's free. Grab your copy now.
8/25/2026 Groupe la Francaise57,855$67.98M0.8%-20.8%0.022%
8/25/2026 Kingsbury Capital Investment Advisors LLC312$367K0.3%-6.3%0.000%
8/25/2026 VIRGINIA RETIREMENT SYSTEMS ET Al56,358$66.21M0.4%N/A0.021%
8/24/2026 Strategic Financial Services Inc.1,074$1.26M0.1%-65.9%0.000%
8/24/2026 California State Teachers Retirement System483,330,355$567.85B1.5%+116,092.4%181.478%
8/23/2026 Tanager Wealth Management LLP199$234K0.0%N/A0.000%
8/23/2026 Washington Trust Advisors Inc.1,904$2.24M0.2%-19.7%0.001%
8/23/2026 Ameritas Advisory Services LLC3,915$4.60M0.1%+272.5%0.001%
8/23/2026 Guardian Wealth Advisors LLC NC473$556K0.0%+7.5%0.000%
8/23/2026 Wedmont Private Capital14,045$15.33M0.4%+2.2%0.005%
8/23/2026 Kintra Wealth LLC1,020$1.20M0.1%+11.2%0.000%
8/23/2026 Morling Financial Advisors LLC215$253K0.1%N/A0.000%
8/23/2026 PCG Wealth Advisors LLC212$249K0.1%N/A0.000%
8/23/2026 POM Investment Strategies LLC68$80K0.1%-73.2%0.000%
8/23/2026 Operose Advisors LLC202$237K0.0%-5.6%0.000%
8/23/2026 HB Wealth Management LLC15,830$18.60M0.1%-0.8%0.006%
8/23/2026 Nilsine Partners LLC930$1.09M0.1%+1.3%0.000%
8/23/2026 Saudi Central Bank18,867$22.17M0.3%+88.4%0.007%
8/23/2026 Fortitude Advisory Group L.L.C.1,327$1.56M0.6%-10.5%0.000%
8/23/2026 Angeles Wealth Management LLC3,573$4.20M0.2%+5.6%0.001%
8/23/2026 Azimuth Capital Investment Management LLC33,052$38.83M1.3%+44.0%0.012%
8/23/2026 Unique Wealth LLC176$207K0.0%N/A0.000%
8/23/2026 Kaydan Wealth Management Inc.339$398K0.1%-14.2%0.000%
8/22/2026 Schuylkill Financial LLC1,029$1.21M1.1%N/A0.000%
8/22/2026 NI Acquisitions Company LLC104$122K0.0%N/A0.000%
8/22/2026 NBH Bank479$563K0.2%N/A0.000%
8/22/2026 AlphaGrep UK Ltd841$988K0.3%+12.0%0.000%
8/22/2026 Shah Wealth Advisors LLC847$995K0.2%N/A0.000%
8/22/2026 MW Advisory LLC435$511K0.2%N/A0.000%
8/22/2026 Markowski Investments77$90K0.0%N/A0.000%
Your book attached (Ad)

Bill Poulos is giving away his 'Safe Trade Options Formula' book for free - but only for a limited time through a temporary download link. He plans to charge for it soon. Download your copy now and lock it in at no cost, regardless of future pricing.tc pixel

Download the Safe Trade Options Formula book for free before access closes
8/22/2026 Old Mission Investment Co LLC727$854K0.2%N/A0.000%
8/22/2026 Montgomery Financial Services LLC52$61K0.1%N/A0.000%
8/22/2026 Highland Investment Advisors LLC78$92K0.0%N/A0.000%
8/22/2026 Timbuktu Capital Management LLC93$109K0.2%N/A0.000%
8/22/2026 Munich Reinsurance Co Stock Corp in Munich3,553$4.17M0.1%N/A0.001%
8/22/2026 Blalock Williams LLC237$278K0.2%-8.8%0.000%
8/22/2026 MOR Wealth Management LLC211$248K0.1%N/A0.000%
8/22/2026 Mann Financial Group Inc.300$352K0.3%-27.2%0.000%
8/22/2026 Three Seasons Wealth LLC397$466K0.0%N/A0.000%
8/22/2026 Investor s Fiduciary Advisor Network LLC233$274K0.1%-11.4%0.000%
8/22/2026 Legacy Wealth Managment LLC ID369$433K0.2%+2,738.5%0.000%
8/22/2026 Tudor Financial Inc.323$380K0.2%N/A0.000%
8/22/2026 LifePlan Investment Advisors Inc.970$1.14M0.4%+1.6%0.000%
8/22/2026 ZEGA Investments LLC977$1.15M0.1%-14.8%0.000%
8/22/2026 NWF Advisory Services Inc.2,391$2.81M0.3%+5.3%0.001%
8/22/2026 Syon Capital LLC3,555$4.18M0.2%+7.1%0.001%
8/22/2026 denkapparat Operations GmbH644$757K0.2%N/A0.000%
8/22/2026 TD Waterhouse Canada Inc.165,072$187.24M0.5%+3.1%0.062%
8/22/2026 Kampmann Melissa S.4,437$5.21M3.9%-0.3%0.002%
8/22/2026 Premier Path Wealth Partners LLC2,145$2.52M0.3%+4.3%0.001%
8/22/2026 United Community Bank303$356K0.1%+37.7%0.000%
8/22/2026 Concurrent Investment Advisors LLC26,216$30.80M0.3%+23.8%0.010%
8/22/2026 NEOS Investment Management LLC43,159$50.71M0.2%+9.6%0.016%
8/22/2026 Power Wealth Management LLC296$348K0.1%-6.9%0.000%
8/22/2026 Burford Brothers Inc.3,893$4.57M1.7%+0.9%0.001%
8/21/2026 AXQ Capital LP639$751K0.1%-85.1%0.000%
8/21/2026 Montz Harcus Wealth Management LLC211$248K0.1%N/A0.000%
8/21/2026 Fortune 45 LLC1,477$1.74M0.8%+10.3%0.001%
8/21/2026 High Net Worth Advisory Group LLC1,072$1.26M0.3%-1.2%0.000%
8/21/2026 Retireful LLC1,183$1.39M1.3%+8.2%0.000%
8/21/2026 KFG Wealth Management LLC193$227K0.0%N/A0.000%
8/21/2026 Athena Investment Management477$560K0.3%-36.5%0.000%
8/21/2026 Strengthening Families & Communities LLC93$109K0.0%+78.8%0.000%
8/21/2026 WorthPointe LLC193$227K0.1%N/A0.000%
8/21/2026 Beacon Capital Management LLC180$212K0.0%N/A0.000%
8/21/2026 Greenspring Advisors LLC1,705$2.00M0.1%-10.3%0.001%
8/21/2026 Aletheian Wealth Advisors LLC238$280K0.1%N/A0.000%
8/21/2026 Paragon Private Wealth Management LLC650$764K0.2%+40.1%0.000%
8/21/2026 Continuum Advisory LLC1,162$1.37M0.1%+55.1%0.000%
8/21/2026 Ewing Morris & Co. Investment Partners Ltd.255$300K0.2%-5.6%0.000%
8/21/2026 Nykredit A S165,823$194.82M0.6%N/A0.062%
8/21/2026 B. Metzler seel. Sohn & Co. AG23,080$27.12M0.2%+37.7%0.009%
8/21/2026 Draper Asset Management LLC3,470$4.08M2.1%-29.4%0.001%
8/21/2026 MBA Advisors LLC198$233K0.1%-63.6%0.000%
8/21/2026 Live Oak Private Wealth LLC453$532K0.1%-5.6%0.000%
8/21/2026 Firestone Capital Management191$224K0.0%N/A0.000%
8/21/2026 Sunburst Financial Group LLC240$282K0.0%N/A0.000%
8/21/2026 Natural Investments LLC989$1.16M0.3%+8.9%0.000%
8/21/2026 XML Financial LLC1,311$1.54M0.1%-13.6%0.000%
8/21/2026 Beacon Financial Advisory LLC515$605K0.1%+6.4%0.000%
Porter flew 3,300 miles to investigate this system (Ad)

Porter Stansberry flew the Porter and Co. team 3,300 miles to Dublin to investigate a 17-year investing experiment called Project Prophet - and documented everything on film. Rooted in the laws of physics, this quantitative approach challenges conventional wealth-building wisdom. With 17 years of verified data behind it, Porter calls it unlike anything he has seen in nearly 30 years in the business.tc pixel

Watch the full investigation and decide for yourself
8/21/2026 KFA Private Wealth Group LLC203$238K0.1%-15.8%0.000%
8/21/2026 Laidlaw Wealth Management LLC294$345K1.0%N/A0.000%
8/21/2026 Symphony Financial Ltd. Co.1,661$1.87M0.2%+14.7%0.001%
8/21/2026 Secure Asset Management LLC3,719$4.37M0.6%-2.7%0.001%
8/21/2026 Chesapeake Wealth Management349$410K0.1%+47.3%0.000%
8/21/2026 Independence Bank of Kentucky1,685$1.98M0.2%+12.0%0.001%
8/21/2026 Requisite Capital Management LLC352$414K0.1%-38.0%0.000%
8/21/2026 Acorn Wealth Advisors LLC201$236K0.1%N/A0.000%
8/21/2026 Legacy Financial Advisors Inc.2,575$3.03M0.4%+1.6%0.001%
8/20/2026 Avant Capital LLC180$212K0.1%N/A0.000%


GEV Institutional Ownership - Frequently Asked Questions

During the previous two years, 3,175 institutional investors and hedge funds held shares of GE Vernova. The most heavily invested institutionals were California State Teachers Retirement System ($567.85B), BlackRock Inc. ($25.57B), Vanguard Group Inc. ($16.35B), FMR LLC ($8.18B), State Street Corp ($7.50B), Geode Capital Management LLC ($4.07B), and Morgan Stanley ($3.96B).Learn more on GE Vernova's institutional investors.

Of the 2,918 institutional investors that purchased GE Vernova's stock in the last 24 months, the following investors and hedge funds have bought the highest volume of shares: California State Teachers Retirement System ($483.01M), Auto Owners Insurance Co ($35.11M), BlackRock Inc. ($21.76M), Norges Bank ($10.29M), Mountaineer Partners Management LLC ($9.83M), Capital International Investors ($2.99M), and Bank of America Corp DE ($2.96M).

Institutional investors have bought a total of 580,209,716 shares in the last 24 months. This purchase volume represents approximately $647.95B in transactions.

Of the 1,128 institutional investors that sold GE Vernova's stock in the last 24 months, the following investors and hedge funds have sold the highest volume of shares: Capital International Investors ($5.44M), Wellington Management Group LLP ($1.90M), Amundi ($1.16M), Assenagon Asset Management S.A. ($833.68K), Bank of New York Mellon Corp ($636.40K), Qube Research & Technologies Ltd ($560.12K), and UBS AM A Distinct Business Unit of UBS Asset Management Americas LLC ($421.81K).

Institutional investors have sold a total of 21,793,726 shares in the last 24 months. This volume of shares sold represents approximately $14.77B in transactions.



Institutional ownership data for NYSE:GEV is compiled from quarterly 13F filings submitted to the U.S. Securities and Exchange Commission (SEC), with the most recent received on 9/2/2026. New 13F filings are added each quarter as they're published.
From Our Partners